Time;durP1;ratioP1;P1;durP2;ratioP2;P2;SDS_P1;SDS_P2;PMS_P1;PMS_P2;Temp;Humidity;BMP_temperature;BMP_pressure;BME280_temperature;BME280_humidity;BME280_pressure;Samples;Min_cycle;Max_cycle;Signal;HPM_P1;HPM_P2
2023/05/02 04:22:32;;;;;;;20.15;8.70;;;;;;;8.01;100.00;100572.72;5089488;28;20328;-71
2023/05/02 04:25:02;;;;;;;18.02;9.02;;;;;;;8.05;100.00;100581.25;5088114;28;20036;-72
2023/05/02 04:27:28;;;;;;;20.48;9.50;;;;;;;8.09;100.00;100583.47;5087839;28;20040;-73
2023/05/02 04:29:54;;;;;;;20.42;9.35;;;;;;;8.09;100.00;100587.94;5088088;28;20035;-73
2023/05/02 04:32:21;;;;;;;25.20;9.52;;;;;;;8.11;100.00;100589.44;5088154;28;20082;-73
2023/05/02 04:34:47;;;;;;;20.63;10.18;;;;;;;8.11;100.00;100586.78;5088064;28;20528;-72
2023/05/02 04:37:13;;;;;;;18.75;7.78;;;;;;;8.07;100.00;100588.06;5087552;28;20059;-72
2023/05/02 04:39:42;;;;;;;19.10;8.95;;;;;;;7.99;100.00;100590.63;5087904;28;20042;-72
2023/05/02 04:42:14;;;;;;;17.25;9.07;;;;;;;7.96;100.00;100595.41;5071875;28;20043;-71
2023/05/02 04:44:48;;;;;;;18.48;8.18;;;;;;;7.97;100.00;100605.03;5087819;28;20040;-72
2023/05/02 04:47:15;;;;;;;19.80;9.32;;;;;;;7.99;100.00;100611.03;5087258;28;20035;-72
2023/05/02 04:49:40;;;;;;;22.23;10.18;;;;;;;8.04;100.00;100611.41;5087798;28;20025;-71
2023/05/02 04:52:06;;;;;;;17.55;8.10;;;;;;;8.02;100.00;100608.06;5087846;28;20036;-72
2023/05/02 04:54:33;;;;;;;22.38;10.98;;;;;;;8.05;100.00;100621.88;5087719;28;20397;-75
2023/05/02 04:57:01;;;;;;;17.40;7.90;;;;;;;8.11;100.00;100618.63;5087574;28;20025;-73
2023/05/02 04:59:26;;;;;;;14.00;7.97;;;;;;;8.14;100.00;100623.63;5087407;28;20120;-52
2023/05/02 05:01:51;;;;;;;25.52;11.30;;;;;;;8.19;100.00;100623.19;5088652;28;20090;-51
2023/05/02 05:04:17;;;;;;;14.30;7.70;;;;;;;8.22;100.00;100622.06;5087423;28;20028;-52
2023/05/02 05:06:42;;;;;;;19.33;8.57;;;;;;;8.29;100.00;100637.25;5088590;28;20567;-55
2023/05/02 05:09:08;;;;;;;19.33;9.90;;;;;;;8.35;100.00;100642.00;5087003;28;20036;-63
2023/05/02 05:11:35;;;;;;;19.65;10.18;;;;;;;8.45;100.00;100647.22;5087208;28;20032;-61
2023/05/02 05:14:02;;;;;;;21.67;10.52;;;;;;;8.51;100.00;100659.09;5087308;28;20466;-64
2023/05/02 05:16:29;;;;;;;20.50;9.63;;;;;;;8.57;100.00;100655.81;5087682;28;20628;-64
2023/05/02 05:18:55;;;;;;;19.88;8.20;;;;;;;8.65;100.00;100662.03;5087034;28;20043;-64
2023/05/02 05:21:21;;;;;;;20.90;11.07;;;;;;;8.71;100.00;100665.94;5066452;28;20124;-65
2023/05/02 05:23:47;;;;;;;16.05;9.45;;;;;;;8.80;100.00;100665.03;5086877;28;20020;-64
2023/05/02 05:26:18;;;;;;;23.77;11.40;;;;;;;8.84;100.00;100673.53;5086870;28;20040;-64
2023/05/02 05:28:46;;;;;;;20.50;10.10;;;;;;;8.90;100.00;100676.41;5086530;28;20078;-64
2023/05/02 05:31:16;;;;;;;20.48;10.18;;;;;;;9.00;100.00;100681.66;5086874;28;20505;-64
2023/05/02 05:33:44;;;;;;;19.17;10.85;;;;;;;9.10;100.00;100687.72;5074275;28;20056;-64
2023/05/02 05:36:13;;;;;;;19.40;10.70;;;;;;;9.17;100.00;100682.63;5073310;28;20575;-65
2023/05/02 05:38:39;;;;;;;17.88;9.40;;;;;;;9.18;100.00;100685.13;5072968;28;20467;-65
2023/05/02 05:41:07;;;;;;;19.95;9.55;;;;;;;9.23;100.00;100685.50;5070087;28;20103;-65
2023/05/02 05:43:33;;;;;;;20.85;9.93;;;;;;;9.30;100.00;100696.34;5073201;28;20041;-64
2023/05/02 05:46:00;;;;;;;21.05;9.85;;;;;;;9.36;100.00;100701.03;5072857;28;20044;-62
2023/05/02 05:48:27;;;;;;;21.88;10.02;;;;;;;9.41;100.00;100695.28;5072788;28;20095;-63
2023/05/02 05:50:52;;;;;;;17.55;8.93;;;;;;;9.47;100.00;100698.16;5072952;28;20032;-64
2023/05/02 05:53:18;;;;;;;15.40;8.32;;;;;;;9.51;100.00;100701.31;5072843;28;20032;-64
2023/05/02 05:55:46;;;;;;;17.95;9.70;;;;;;;9.55;100.00;100707.19;5072808;28;20028;-64
2023/05/02 05:58:12;;;;;;;21.50;9.60;;;;;;;9.53;100.00;100704.69;5072726;28;20512;-63
2023/05/02 06:00:39;;;;;;;16.45;8.70;;;;;;;9.54;100.00;100705.50;5072899;28;20039;-64
2023/05/02 06:03:05;;;;;;;16.73;8.90;;;;;;;9.59;100.00;100706.72;5072871;28;20459;-64
2023/05/02 06:05:32;;;;;;;19.33;10.47;;;;;;;9.64;100.00;100706.22;5072823;28;20127;-64
2023/05/02 06:07:58;;;;;;;16.20;9.18;;;;;;;9.72;100.00;100709.81;5073722;28;20039;-64
2023/05/02 06:10:25;;;;;;;24.58;10.98;;;;;;;9.77;100.00;100711.97;5072642;28;20064;-64
2023/05/02 06:12:51;;;;;;;16.95;8.65;;;;;;;9.84;100.00;100710.34;5072677;28;20036;-64
2023/05/02 06:15:20;;;;;;;19.85;9.05;;;;;;;9.88;100.00;100706.38;5072572;28;20036;-66
2023/05/02 06:17:46;;;;;;;17.35;9.07;;;;;;;9.97;100.00;100709.91;5072220;28;20043;-64
2023/05/02 06:20:11;;;;;;;11.52;7.95;;;;;;;10.03;100.00;100714.63;5073632;28;20052;-61
2023/05/02 06:22:38;;;;;;;20.40;9.60;;;;;;;10.16;100.00;100722.16;5072337;28;20439;-62
2023/05/02 06:25:04;;;;;;;21.77;9.82;;;;;;;10.25;100.00;100727.41;5073759;28;20037;-63
2023/05/02 06:27:30;;;;;;;22.70;9.93;;;;;;;10.39;100.00;100728.66;5073270;28;20032;-66
2023/05/02 06:29:56;;;;;;;15.70;9.02;;;;;;;10.48;100.00;100740.97;5073700;28;20042;-61
2023/05/02 06:32:21;;;;;;;16.75;9.52;;;;;;;10.62;100.00;100744.03;5073545;28;20071;-64
2023/05/02 06:34:47;;;;;;;16.50;9.35;;;;;;;10.75;100.00;100752.41;5072216;28;20040;-62
2023/05/02 06:37:12;;;;;;;20.05;9.98;;;;;;;10.82;100.00;100750.75;5073177;28;20032;-63
2023/05/02 06:39:37;;;;;;;18.83;9.13;;;;;;;10.91;100.00;100752.47;5073118;28;20079;-62
2023/05/02 06:42:03;;;;;;;16.98;9.32;;;;;;;10.97;100.00;100758.97;5073268;28;20032;-66
2023/05/02 06:44:30;;;;;;;15.65;9.55;;;;;;;11.00;100.00;100762.13;5071019;28;20123;-64
2023/05/02 06:46:55;;;;;;;15.50;8.52;;;;;;;10.96;100.00;100768.81;5072995;28;20060;-65
2023/05/02 06:49:21;;;;;;;19.90;9.20;;;;;;;11.01;100.00;100777.13;5072997;28;20460;-64
2023/05/02 06:51:46;;;;;;;15.70;8.63;;;;;;;11.00;100.00;100779.94;5073029;28;20037;-64
2023/05/02 06:54:13;;;;;;;20.17;9.35;;;;;;;10.96;100.00;100779.47;5073034;28;20041;-64
2023/05/02 06:56:39;;;;;;;17.23;9.73;;;;;;;10.93;100.00;100781.59;5072790;28;20048;-64
2023/05/02 06:59:04;;;;;;;20.23;10.30;;;;;;;10.95;100.00;100785.75;5072550;28;20042;-65
2023/05/02 07:01:30;;;;;;;18.60;10.30;;;;;;;10.91;100.00;100781.78;5072877;28;20106;-64
2023/05/02 07:03:55;;;;;;;21.35;10.05;;;;;;;10.99;100.00;100788.97;5072852;28;20033;-65
2023/05/02 07:06:21;;;;;;;18.65;9.38;;;;;;;10.99;100.00;100786.28;5072742;28;20485;-64
2023/05/02 07:08:46;;;;;;;18.05;9.32;;;;;;;11.06;100.00;100788.13;5072541;28;20089;-64
2023/05/02 07:11:11;;;;;;;19.35;9.07;;;;;;;11.05;100.00;100790.97;5072698;28;20109;-64
2023/05/02 07:13:37;;;;;;;16.70;9.48;;;;;;;11.19;100.00;100794.81;5072875;28;20545;-64
2023/05/02 07:16:02;;;;;;;17.73;9.30;;;;;;;11.30;100.00;100791.84;5072618;28;20036;-65
2023/05/02 07:18:28;;;;;;;17.17;8.63;;;;;;;11.37;100.00;100800.88;5072345;28;20029;-64
2023/05/02 07:20:54;;;;;;;18.58;10.05;;;;;;;11.55;100.00;100796.22;5072474;28;20139;-64
2023/05/02 07:23:19;;;;;;;20.00;10.25;;;;;;;11.65;100.00;100791.53;5072600;28;20127;-65
2023/05/02 07:25:46;;;;;;;22.17;10.02;;;;;;;11.72;100.00;100785.53;5072657;28;20032;-64
2023/05/02 07:28:12;;;;;;;20.90;12.38;;;;;;;11.85;100.00;100786.72;5072261;28;20032;-64
2023/05/02 07:30:37;;;;;;;19.67;9.75;;;;;;;12.01;100.00;100780.53;5072388;28;20413;-64
2023/05/02 07:33:03;;;;;;;20.48;9.23;;;;;;;12.07;100.00;100787.88;5072460;28;20048;-65
2023/05/02 07:35:28;;;;;;;17.75;9.90;;;;;;;12.16;100.00;100781.50;5072158;28;20062;-64
2023/05/02 07:37:54;;;;;;;21.27;9.77;;;;;;;12.17;100.00;100791.16;5072007;28;20040;-64
2023/05/02 07:40:19;;;;;;;20.88;11.02;;;;;;;12.30;100.00;100784.47;5072331;28;20060;-61
2023/05/02 07:42:45;;;;;;;26.17;11.63;;;;;;;12.21;100.00;100770.31;5072313;28;20569;-63
2023/05/02 07:45:11;;;;;;;25.33;12.43;;;;;;;12.63;100.00;100794.03;5072157;28;20094;-62
2023/05/02 07:47:36;;;;;;;22.17;11.75;;;;;;;12.81;100.00;100795.63;5071838;28;20048;-63
2023/05/02 07:50:03;;;;;;;24.73;12.43;;;;;;;12.84;100.00;100796.09;5072226;28;20036;-61
2023/05/02 07:52:29;;;;;;;28.00;13.82;;;;;;;13.00;100.00;100793.38;5072103;28;20446;-62
2023/05/02 07:54:55;;;;;;;29.52;13.05;;;;;;;13.11;100.00;100800.16;5071961;28;20071;-62
2023/05/02 07:57:20;;;;;;;28.77;13.45;;;;;;;13.15;100.00;100804.13;5071728;28;20088;-63
2023/05/02 07:59:46;;;;;;;25.95;12.52;;;;;;;13.28;100.00;100800.91;5072050;28;20123;-63
2023/05/02 08:02:12;;;;;;;29.83;13.27;;;;;;;13.24;100.00;100805.81;5072095;28;20086;-59
2023/05/02 08:04:38;;;;;;;39.03;15.95;;;;;;;13.25;100.00;100799.44;5072008;28;20036;-57
2023/05/02 08:07:04;;;;;;;41.72;18.00;;;;;;;13.19;97.65;100808.13;5071976;28;20123;-63
2023/05/02 08:09:29;;;;;;;57.25;20.17;;;;;;;13.28;96.52;100804.41;5071957;28;20068;-59
2023/05/02 08:11:55;;;;;;;43.72;18.92;;;;;;;13.29;97.36;100807.94;5071776;28;20040;-62
2023/05/02 08:14:21;;;;;;;47.03;19.17;;;;;;;13.28;94.10;100814.28;5071946;28;20056;-61
2023/05/02 08:16:46;;;;;;;46.40;19.73;;;;;;;13.38;94.61;100811.41;5071645;28;20049;-61
2023/05/02 08:19:11;;;;;;;43.65;18.77;;;;;;;13.41;96.12;100817.22;5071591;28;20036;-60
2023/05/02 08:21:37;;;;;;;39.13;18.92;;;;;;;13.55;98.96;100812.94;5071661;28;20033;-63
2023/05/02 08:24:02;;;;;;;40.83;18.35;;;;;;;13.55;94.26;100815.59;5071757;28;20119;-61
2023/05/02 08:26:28;;;;;;;45.90;20.33;;;;;;;13.49;93.86;100813.63;5071720;28;20060;-62
2023/05/02 08:28:54;;;;;;;40.63;18.75;;;;;;;13.64;91.82;100816.41;5071458;28;20033;-63
2023/05/02 08:31:20;;;;;;;36.40;16.90;;;;;;;13.81;91.36;100818.75;5071628;28;20040;-63
2023/05/02 08:33:46;;;;;;;40.95;17.42;;;;;;;13.96;91.12;100823.31;5071601;28;20071;-62
2023/05/02 08:36:16;;;;;;;45.42;19.25;;;;;;;14.03;90.44;100824.25;5071680;28;20036;-62
2023/05/02 08:38:43;;;;;;;40.75;17.95;;;;;;;14.09;86.89;100823.53;5071453;28;20032;-62
2023/05/02 08:41:16;;;;;;;35.15;16.83;;;;;;;14.27;87.79;100831.22;5071613;28;20029;-62
2023/05/02 08:43:42;;;;;;;43.10;18.88;;;;;;;14.32;94.17;100832.31;5071570;28;20036;-63
2023/05/02 08:46:09;;;;;;;37.60;17.85;;;;;;;14.45;87.61;100825.50;5071502;28;20043;-62
2023/05/02 08:48:36;;;;;;;40.17;19.97;;;;;;;14.38;85.61;100830.75;5071199;28;20032;-62
2023/05/02 08:51:03;;;;;;;37.85;18.15;;;;;;;14.45;86.83;100829.00;5071546;28;20345;-63
2023/05/02 08:53:33;;;;;;;39.17;18.17;;;;;;;14.50;87.79;100834.69;5071687;28;20036;-62
2023/05/02 08:55:59;;;;;;;40.55;17.73;;;;;;;14.46;87.07;100841.41;5070280;28;20032;-61
2023/05/02 08:58:24;;;;;;;34.42;16.95;;;;;;;14.30;85.46;100833.53;5071162;28;20182;-61
2023/05/02 09:00:52;;;;;;;42.53;18.48;;;;;;;14.37;85.21;100839.81;5071370;28;20124;-63
2023/05/02 09:03:33;;;;;;;39.33;18.35;;;;;;;14.34;84.73;100835.69;5071481;28;20382;-59
2023/05/02 09:06:15;;;;;;;36.60;17.70;;;;;;;14.75;84.72;100843.28;5071458;28;20032;-62
2023/05/02 09:08:43;;;;;;;39.03;19.25;;;;;;;15.00;89.29;100838.44;5073723;28;20040;-60
2023/05/02 09:11:10;;;;;;;41.10;18.70;;;;;;;15.16;88.03;100832.84;5074934;28;20044;-62
2023/05/02 09:13:40;;;;;;;40.05;17.35;;;;;;;15.28;82.17;100840.41;5073919;28;20123;-59
2023/05/02 09:16:16;;;;;;;32.13;16.17;;;;;;;15.31;83.07;100838.16;5075099;28;20055;-60
2023/05/02 09:18:56;;;;;;;38.30;17.15;;;;;;;15.27;80.99;100839.59;5073431;28;20417;-61
2023/05/02 09:21:26;;;;;;;35.05;17.50;;;;;;;15.47;82.10;100840.63;5074858;28;20090;-63
2023/05/02 09:23:56;;;;;;;39.65;18.23;;;;;;;15.43;80.94;100842.03;5074847;28;20091;-63
2023/05/02 09:26:30;;;;;;;34.90;16.27;;;;;;;15.22;80.77;100844.69;5074812;28;20474;-63
2023/05/02 09:28:56;;;;;;;37.47;17.55;;;;;;;15.23;78.72;100840.97;5074586;28;20060;-62
2023/05/02 09:31:29;;;;;;;40.03;18.27;;;;;;;15.23;84.01;100845.53;5074718;28;20041;-63
2023/05/02 09:33:55;;;;;;;29.90;17.00;;;;;;;15.06;81.35;100856.47;5074656;28;20033;-64
2023/05/02 09:36:21;;;;;;;33.55;16.92;;;;;;;15.42;80.91;100843.06;5074665;28;20048;-63
2023/05/02 09:38:49;;;;;;;39.45;18.40;;;;;;;15.46;76.67;100836.28;5074495;28;20488;-63
2023/05/02 09:41:16;;;;;;;38.65;16.85;;;;;;;15.38;75.33;100838.25;5074780;28;20035;-63
2023/05/02 09:43:42;;;;;;;36.42;17.20;;;;;;;16.25;73.98;100841.56;5073407;28;20059;-66
2023/05/02 09:46:11;;;;;;;34.63;16.73;;;;;;;16.35;71.93;100830.44;5074426;28;20473;-66
2023/05/02 09:48:51;;;;;;;37.83;16.45;;;;;;;16.87;74.51;100829.09;5074193;28;20106;-66
2023/05/02 09:51:17;;;;;;;32.33;16.88;;;;;;;17.05;65.55;100842.84;5074422;28;20127;-65
2023/05/02 09:53:44;;;;;;;34.95;17.73;;;;;;;17.06;66.98;100844.50;5074470;28;20039;-65
2023/05/02 09:56:09;;;;;;;31.20;15.93;;;;;;;17.24;71.23;100848.50;5074416;28;20446;-64
2023/05/02 09:58:35;;;;;;;31.00;15.65;;;;;;;16.99;66.95;100840.97;5074156;28;20108;-64
2023/05/02 10:01:00;;;;;;;33.13;16.73;;;;;;;16.85;67.96;100843.78;5056209;28;20386;-64
2023/05/02 10:03:27;;;;;;;33.47;17.05;;;;;;;16.84;70.19;100853.72;5074315;28;20040;-66
2023/05/02 10:05:54;;;;;;;31.42;16.98;;;;;;;16.84;75.90;100850.22;5074297;28;20462;-66
2023/05/02 10:08:21;;;;;;;31.35;15.23;;;;;;;16.83;73.44;100854.75;5073996;28;20033;-63
2023/05/02 10:10:51;;;;;;;29.60;16.23;;;;;;;17.05;73.82;100852.78;5073999;28;20116;-63
2023/05/02 10:13:21;;;;;;;30.05;15.23;;;;;;;17.59;68.08;100850.03;5073244;28;20041;-62
2023/05/02 10:15:49;;;;;;;32.63;16.63;;;;;;;18.24;70.29;100852.19;5073806;28;20102;-63
2023/05/02 10:18:25;;;;;;;28.65;14.88;;;;;;;18.57;63.45;100860.22;5073527;28;20021;-63
2023/05/02 10:20:58;;;;;;;26.42;15.05;;;;;;;18.73;61.73;100853.59;5073751;28;20068;-63
2023/05/02 10:23:26;;;;;;;28.15;16.00;;;;;;;18.46;61.08;100861.72;5073929;28;20080;-62
2023/05/02 10:25:52;;;;;;;26.75;14.40;;;;;;;18.20;63.53;100848.25;5073711;28;20036;-63
2023/05/02 10:28:19;;;;;;;25.85;13.88;;;;;;;18.08;62.17;100853.44;5073323;28;20045;-62
2023/05/02 10:30:45;;;;;;;25.47;14.23;;;;;;;17.81;64.24;100856.13;5073524;28;20469;-63
2023/05/02 10:33:12;;;;;;;24.80;12.95;;;;;;;17.51;65.48;100852.94;5073587;28;20289;-63
2023/05/02 10:35:42;;;;;;;27.98;14.25;;;;;;;17.20;69.27;100853.44;5073430;28;20048;-64
2023/05/02 10:38:09;;;;;;;27.23;13.82;;;;;;;17.02;66.59;100845.13;5073185;28;20036;-61
2023/05/02 10:40:35;;;;;;;25.50;13.77;;;;;;;16.87;67.42;100847.94;5073427;28;20481;-63
2023/05/02 10:43:01;;;;;;;25.73;14.02;;;;;;;16.79;69.33;100850.81;5073371;28;20047;-64
2023/05/02 10:45:31;;;;;;;27.80;13.25;;;;;;;16.87;70.92;100841.72;5073266;28;20608;-63
2023/05/02 10:48:25;;;;;;;23.45;12.38;;;;;;;17.13;71.54;100841.00;5072982;28;20681;-61
2023/05/02 10:50:55;;;;;;;21.98;12.27;;;;;;;17.23;69.26;100846.84;5073281;28;20043;-62
2023/05/02 10:53:21;;;;;;;25.58;12.88;;;;;;;17.23;67.11;100838.78;5073229;28;20052;-63
2023/05/02 10:56:14;;;;;;;21.27;11.43;;;;;;;17.21;69.22;100848.91;5072935;28;20090;-62
2023/05/02 10:58:40;;;;;;;23.20;12.57;;;;;;;17.11;67.04;100846.59;5072930;28;20086;-61
2023/05/02 11:01:29;;;;;;;22.17;11.10;;;;;;;17.49;64.93;100851.47;5073033;28;20041;-63
2023/05/02 11:04:00;;;;;;;24.10;12.02;;;;;;;17.87;59.91;100846.41;5067348;28;20052;-63
2023/05/02 11:06:27;;;;;;;22.27;12.18;;;;;;;18.67;56.90;100849.84;5073082;28;20044;-63
2023/05/02 11:09:19;;;;;;;21.98;11.57;;;;;;;19.11;55.36;100850.97;5072212;28;20427;-64
2023/05/02 11:11:45;;;;;;;19.48;10.38;;;;;;;19.43;54.46;100841.00;5064271;28;20040;-63
2023/05/02 11:14:31;;;;;;;17.40;10.10;;;;;;;19.05;50.90;100847.25;5072659;28;20032;-62
2023/05/02 11:17:00;;;;;;;18.02;10.30;;;;;;;19.71;51.20;100840.66;5072261;28;20128;-64
2023/05/02 11:19:26;;;;;;;15.13;9.98;;;;;;;19.93;49.84;100841.94;5072602;28;20042;-65
2023/05/02 11:21:53;;;;;;;15.75;9.88;;;;;;;19.36;49.38;100841.03;5072518;28;20036;-63
2023/05/02 11:24:41;;;;;;;13.98;8.38;;;;;;;18.77;51.84;100842.13;5072674;28;20511;-62
2023/05/02 11:27:29;;;;;;;12.38;7.40;;;;;;;17.88;54.49;100850.75;5072121;28;20142;-61
2023/05/02 11:29:55;;;;;;;13.20;8.75;;;;;;;16.99;58.28;100849.03;5071897;28;20041;-61
2023/05/02 11:32:21;;;;;;;15.63;9.23;;;;;;;17.01;58.88;100846.13;5054414;28;20044;-63
2023/05/02 11:34:51;;;;;;;16.17;8.82;;;;;;;17.13;60.16;100849.09;5072424;28;20025;-63
2023/05/02 11:37:18;;;;;;;14.38;7.85;;;;;;;16.95;61.81;100845.09;5072212;28;20033;-63
2023/05/02 11:39:45;;;;;;;12.60;7.47;;;;;;;17.04;62.27;100851.97;5072383;28;20450;-62
2023/05/02 11:42:27;;;;;;;13.57;7.55;;;;;;;17.00;62.15;100842.63;5072236;28;20028;-63
2023/05/02 11:44:58;;;;;;;13.63;7.72;;;;;;;16.89;60.21;100848.59;5072311;28;20032;-63
2023/05/02 11:47:28;;;;;;;12.52;7.28;;;;;;;17.11;60.59;100845.78;5071725;28;20064;-61
2023/05/02 11:49:58;;;;;;;12.13;7.25;;;;;;;17.06;58.53;100847.19;5070853;28;20036;-60
2023/05/02 11:52:24;;;;;;;14.43;7.43;;;;;;;17.09;59.91;100846.81;5072142;28;20040;-61
2023/05/02 11:54:53;;;;;;;11.80;7.20;;;;;;;16.80;57.24;100836.31;5072083;28;20504;-61
2023/05/02 11:57:18;;;;;;;11.35;6.90;;;;;;;17.09;57.41;100841.44;5071742;28;20025;-61
2023/05/02 11:59:51;;;;;;;12.88;7.03;;;;;;;17.06;57.32;100836.44;5072038;28;20408;-61
2023/05/02 12:02:17;;;;;;;12.05;6.07;;;;;;;17.50;58.38;100837.81;5063193;28;20048;-63
2023/05/02 12:04:43;;;;;;;11.52;5.85;;;;;;;18.19;59.96;100839.31;5060798;28;20474;-62
2023/05/02 12:07:09;;;;;;;10.45;5.70;;;;;;;19.12;55.56;100845.34;5061979;28;20032;-63
2023/05/02 12:09:34;;;;;;;11.15;5.60;;;;;;;19.56;51.19;100840.94;5061807;28;20040;-63
2023/05/02 12:12:01;;;;;;;11.45;6.35;;;;;;;19.66;50.40;100838.59;5042867;28;20501;-59
2023/05/02 12:14:28;;;;;;;8.70;5.23;;;;;;;20.49;48.43;100841.03;5062379;28;20060;-61
2023/05/02 12:16:54;;;;;;;9.40;5.72;;;;;;;20.07;47.83;100837.25;5061242;28;20052;-63
2023/05/02 12:19:21;;;;;;;9.65;5.45;;;;;;;20.63;47.01;100838.19;5043000;28;20127;-63
2023/05/02 12:21:46;;;;;;;8.80;5.10;;;;;;;21.10;46.93;100842.00;5062275;28;20043;-62
2023/05/02 12:24:14;;;;;;;9.05;5.35;;;;;;;21.72;44.31;100849.94;5044442;28;20037;-59
2023/05/02 12:26:39;;;;;;;9.40;5.30;;;;;;;21.54;45.51;100848.94;5060997;28;20393;-61
2023/05/02 12:29:06;;;;;;;6.25;4.53;;;;;;;21.13;45.52;100853.22;5060705;28;20044;-63
2023/05/02 12:31:32;;;;;;;7.15;4.35;;;;;;;21.06;47.52;100852.47;5044214;28;20037;-63
2023/05/02 12:33:59;;;;;;;6.00;4.20;;;;;;;20.82;47.90;100845.25;5059751;28;20379;-62
2023/05/02 12:36:27;;;;;;;7.00;5.05;;;;;;;20.61;45.72;100857.38;5062489;28;20449;-62
2023/05/02 12:38:55;;;;;;;5.53;3.75;;;;;;;19.91;48.41;100860.25;5059635;28;20094;-61
2023/05/02 12:41:30;;;;;;;6.82;4.00;;;;;;;19.49;47.51;100853.63;5060329;28;20124;-63
2023/05/02 12:43:57;;;;;;;6.88;4.10;;;;;;;19.36;47.15;100851.00;5064912;28;20392;-62
2023/05/02 12:46:22;;;;;;;6.10;3.80;;;;;;;19.14;51.00;100853.22;5066874;28;20029;-63
2023/05/02 12:49:04;;;;;;;5.00;3.58;;;;;;;19.35;48.92;100838.56;5074097;28;20374;-63
2023/05/02 12:51:31;;;;;;;4.60;2.90;;;;;;;19.94;49.47;100842.75;5075512;28;20037;-63
2023/05/02 12:53:57;;;;;;;5.22;4.15;;;;;;;19.58;47.67;100840.75;5075475;28;20032;-61
2023/05/02 12:56:23;;;;;;;5.63;3.45;;;;;;;20.38;48.21;100849.03;5075323;28;20056;-62
2023/05/02 12:58:49;;;;;;;5.57;3.63;;;;;;;20.65;48.34;100839.63;5057343;28;20055;-60
2023/05/02 13:01:15;;;;;;;5.55;3.95;;;;;;;20.66;45.84;100835.84;5075198;28;20040;-59
2023/05/02 13:03:42;;;;;;;6.07;3.70;;;;;;;21.30;47.69;100841.75;5075435;28;20036;-63
2023/05/02 13:06:07;;;;;;;6.38;3.67;;;;;;;21.35;43.39;100841.91;5075113;28;20075;-63
2023/05/02 13:08:34;;;;;;;5.07;3.15;;;;;;;20.75;42.09;100844.53;5074914;28;20067;-62
2023/05/02 13:11:01;;;;;;;5.13;3.35;;;;;;;21.38;43.28;100850.38;5075180;28;20044;-63
2023/05/02 13:13:28;;;;;;;5.97;3.50;;;;;;;21.88;43.14;100847.34;5075097;28;20040;-62
2023/05/02 13:15:53;;;;;;;5.10;3.42;;;;;;;21.81;44.36;100851.22;5074844;28;20041;-63
2023/05/02 13:18:19;;;;;;;4.38;2.85;;;;;;;21.50;44.33;100847.72;5074697;28;20044;-62
2023/05/02 13:20:44;;;;;;;5.10;3.13;;;;;;;21.27;43.76;100853.03;5075117;28;20078;-62
2023/05/02 13:23:10;;;;;;;5.28;2.92;;;;;;;20.48;45.06;100847.50;5074859;28;20047;-62
2023/05/02 13:25:35;;;;;;;4.18;3.10;;;;;;;20.25;44.36;100847.28;5074855;28;20033;-62
2023/05/02 13:28:00;;;;;;;6.35;3.50;;;;;;;20.00;47.28;100841.88;5074419;28;20447;-61
2023/05/02 13:30:26;;;;;;;4.63;3.40;;;;;;;20.03;45.54;100841.44;5074885;28;20033;-60
2023/05/02 13:32:51;;;;;;;4.35;3.35;;;;;;;19.96;46.60;100840.69;5074643;28;20375;-63
2023/05/02 13:35:17;;;;;;;5.22;3.17;;;;;;;19.76;46.19;100832.72;5074559;28;20178;-63
2023/05/02 13:37:42;;;;;;;5.65;4.03;;;;;;;19.99;46.29;100834.81;5074328;28;20047;-64
2023/05/02 13:40:08;;;;;;;4.80;3.60;;;;;;;19.63;46.40;100836.34;5074532;28;20033;-62
2023/05/02 13:42:33;;;;;;;4.55;3.10;;;;;;;19.58;48.22;100832.66;5074521;28;20047;-61
2023/05/02 13:45:01;;;;;;;6.43;3.90;;;;;;;19.65;47.30;100834.25;5074548;28;20047;-63
2023/05/02 13:47:27;;;;;;;4.80;2.78;;;;;;;19.57;46.17;100825.56;5074016;28;20125;-63
2023/05/02 13:49:52;;;;;;;5.35;3.80;;;;;;;19.24;48.92;100829.28;5074456;28;20070;-61
2023/05/02 13:52:18;;;;;;;6.18;3.85;;;;;;;19.36;47.46;100827.53;5074298;28;20129;-61
2023/05/02 13:54:43;;;;;;;4.65;3.40;;;;;;;19.32;49.02;100833.59;5073889;28;20046;-62
2023/05/02 13:57:08;;;;;;;5.50;3.60;;;;;;;19.38;50.93;100835.44;5073822;28;20043;-61
2023/05/02 13:59:34;;;;;;;4.20;3.00;;;;;;;19.39;52.29;100824.41;5074352;28;20044;-61
2023/05/02 14:01:59;;;;;;;4.15;2.75;;;;;;;19.46;47.70;100824.38;5074241;28;20032;-63
2023/05/02 14:04:25;;;;;;;4.40;3.00;;;;;;;19.33;46.48;100827.97;5074244;28;20230;-62
2023/05/02 14:06:50;;;;;;;5.55;3.15;;;;;;;19.00;46.89;100836.25;5073876;28;20041;-63
2023/05/02 14:09:16;;;;;;;3.78;2.63;;;;;;;19.27;45.52;100826.16;5073927;28;20028;-63
2023/05/02 14:11:43;;;;;;;4.55;2.80;;;;;;;18.81;46.60;100813.69;5073877;28;20029;-63
2023/05/02 14:14:11;;;;;;;4.32;2.63;;;;;;;19.29;46.72;100817.81;5073983;28;20127;-63
2023/05/02 14:16:37;;;;;;;4.15;2.70;;;;;;;19.38;47.94;100816.53;5073882;28;20036;-61
2023/05/02 14:19:02;;;;;;;3.17;2.13;;;;;;;19.61;47.89;100815.97;5073628;28;20044;-63
2023/05/02 14:21:27;;;;;;;4.20;2.70;;;;;;;19.55;47.38;100809.53;5072624;28;20043;-63
2023/05/02 14:23:53;;;;;;;4.22;2.70;;;;;;;19.53;47.42;100815.16;5074072;28;20452;-63
2023/05/02 14:26:19;;;;;;;4.38;2.55;;;;;;;19.58;45.56;100817.25;5073683;28;20040;-63
2023/05/02 14:28:45;;;;;;;5.00;2.55;;;;;;;19.12;44.93;100820.22;5073386;28;20032;-63
2023/05/02 14:31:10;;;;;;;2.60;1.88;;;;;;;19.35;45.42;100815.06;5072456;28;20044;-62
2023/05/02 14:33:36;;;;;;;3.35;2.05;;;;;;;19.49;44.65;100816.63;5073755;28;20398;-63
2023/05/02 14:36:02;;;;;;;2.40;1.90;;;;;;;19.35;45.78;100823.19;5073492;28;20037;-61
2023/05/02 14:38:28;;;;;;;3.25;2.00;;;;;;;19.29;47.16;100815.94;5072051;28;20375;-60
2023/05/02 14:40:53;;;;;;;2.38;1.58;;;;;;;19.27;45.97;100814.50;5072255;28;20051;-63
2023/05/02 14:43:19;;;;;;;2.40;1.63;;;;;;;19.45;46.57;100817.31;5073340;28;20040;-62
2023/05/02 14:45:44;;;;;;;2.58;2.00;;;;;;;19.57;47.52;100809.34;5072246;28;20048;-62
2023/05/02 14:48:12;;;;;;;4.55;1.83;;;;;;;19.45;47.28;100812.75;5073001;28;20549;-61
2023/05/02 14:50:38;;;;;;;2.55;1.70;;;;;;;19.37;48.09;100801.38;5073231;28;20127;-62
2023/05/02 14:53:04;;;;;;;4.93;2.17;;;;;;;19.37;48.32;100810.31;5073347;28;20119;-63
2023/05/02 14:55:34;;;;;;;3.35;1.70;;;;;;;19.36;47.38;100816.72;5073150;28;20518;-61
2023/05/02 14:57:59;;;;;;;2.40;1.88;;;;;;;18.82;47.25;100823.44;5071667;28;20044;-62
2023/05/02 15:00:25;;;;;;;3.08;1.90;;;;;;;19.00;46.00;100814.66;5073041;28;20127;-64
2023/05/02 15:02:50;;;;;;;2.80;1.77;;;;;;;18.90;45.46;100825.88;5072932;28;20495;-64
2023/05/02 15:05:16;;;;;;;1.92;1.30;;;;;;;18.96;45.15;100825.03;5072475;28;20046;-60
2023/05/02 15:07:41;;;;;;;1.95;1.40;;;;;;;18.94;43.89;100821.72;5072672;28;20528;-63
2023/05/02 15:10:07;;;;;;;2.65;1.63;;;;;;;18.79;43.88;100820.34;5072739;28;20456;-63
2023/05/02 15:12:32;;;;;;;2.40;1.70;;;;;;;18.75;44.33;100811.00;5072705;28;20040;-61
2023/05/02 15:14:58;;;;;;;2.03;1.35;;;;;;;18.66;44.83;100813.09;5072745;28;20036;-63
2023/05/02 15:17:23;;;;;;;2.28;1.30;;;;;;;18.73;46.28;100813.09;5072136;28;20044;-62
2023/05/02 15:19:48;;;;;;;2.25;1.35;;;;;;;18.80;46.31;100816.59;5072509;28;20486;-60
2023/05/02 15:22:14;;;;;;;2.03;1.30;;;;;;;18.90;46.83;100816.97;5076079;28;20031;-58
2023/05/02 15:24:40;;;;;;;2.22;1.20;;;;;;;18.82;45.28;100819.91;5073116;28;20037;-59
2023/05/02 15:27:06;;;;;;;2.70;1.30;;;;;;;18.63;43.64;100821.59;5071614;28;20112;-57
2023/05/02 15:29:31;;;;;;;1.88;1.17;;;;;;;18.46;43.62;100818.56;5072431;28;20488;-58
2023/05/02 15:31:56;;;;;;;2.38;1.65;;;;;;;18.49;43.95;100820.81;5072233;28;20044;-58
2023/05/02 15:34:22;;;;;;;2.05;1.17;;;;;;;18.25;44.34;100825.00;5072264;28;20055;-60
2023/05/02 15:36:47;;;;;;;2.35;1.35;;;;;;;18.31;42.87;100826.03;5072155;28;20489;-59